createdAt,value
2023-03-17T00:00:50.374Z,6.45
2023-03-17T00:03:41.590Z,6.45
2023-03-17T00:06:31.302Z,6.43
2023-03-17T00:09:19.384Z,6.39
2023-03-17T00:12:11.655Z,6.40
2023-03-17T00:14:58.569Z,6.35
2023-03-17T00:17:46.468Z,6.21
2023-03-17T00:20:34.490Z,6.40
2023-03-17T00:23:28.003Z,6.32
2023-03-17T00:26:15.384Z,6.27
2023-03-17T00:29:03.053Z,6.26
2023-03-17T00:31:59.362Z,6.26
2023-03-17T00:34:49.263Z,6.30
2023-03-17T00:37:37.747Z,6.07
2023-03-17T00:40:26.206Z,6.24
2023-03-17T00:43:13.813Z,6.14
2023-03-17T00:46:00.856Z,6.10
2023-03-17T00:48:48.700Z,5.84
2023-03-17T00:51:35.159Z,5.95
2023-03-17T00:54:24.235Z,5.95
2023-03-17T00:57:11.224Z,6.03
2023-03-17T00:59:58.552Z,6.05
2023-03-17T01:02:47.454Z,6.10
2023-03-17T01:05:34.280Z,6.16
2023-03-17T01:08:22.668Z,6.07
2023-03-17T01:11:16.355Z,5.97
2023-03-17T01:14:03.472Z,6.05
2023-03-17T01:16:50.620Z,6.01
2023-03-17T01:19:39.291Z,6.16
2023-03-17T01:22:31.957Z,6.06
2023-03-17T01:25:19.955Z,6.00
2023-03-17T01:28:08.543Z,6.13
2023-03-17T01:30:55.528Z,6.18
2023-03-17T01:33:42.394Z,6.37
2023-03-17T01:36:29.294Z,6.38
2023-03-17T01:39:16.207Z,6.39
2023-03-17T01:42:02.837Z,6.24
2023-03-17T01:45:05.687Z,6.28
2023-03-17T01:47:52.422Z,6.28
2023-03-17T01:50:39.146Z,6.10
2023-03-17T01:53:26.266Z,6.16
2023-03-17T01:56:13.203Z,6.08
2023-03-17T01:59:03.888Z,6.15
2023-03-17T02:01:56.766Z,6.18
2023-03-17T02:04:43.562Z,6.09
2023-03-17T02:07:31.509Z,6.24
2023-03-17T02:10:20.591Z,6.17
2023-03-17T02:13:08.594Z,6.19
2023-03-17T02:15:57.060Z,6.28
2023-03-17T02:18:45.412Z,6.37
2023-03-17T02:21:42.131Z,6.38
2023-03-17T02:24:37.198Z,6.33
2023-03-17T02:27:31.431Z,6.33
2023-03-17T02:30:21.932Z,6.27
2023-03-17T02:33:08.707Z,6.32
2023-03-17T02:35:56.530Z,6.41
2023-03-17T02:38:44.389Z,6.44
2023-03-17T02:41:31.402Z,6.43
2023-03-17T02:44:19.120Z,6.50
2023-03-17T02:47:06.624Z,6.50
2023-03-17T02:49:53.988Z,6.46
2023-03-17T02:52:40.662Z,6.41
2023-03-17T02:55:28.776Z,6.41
2023-03-17T02:58:15.204Z,6.45
2023-03-17T03:01:02.332Z,6.46
2023-03-17T03:03:49.084Z,6.51
2023-03-17T03:06:36.206Z,6.50
2023-03-17T03:09:22.885Z,6.40
2023-03-17T03:12:11.855Z,6.36
2023-03-17T03:14:58.955Z,6.42
2023-03-17T03:17:45.665Z,6.44
2023-03-17T03:20:32.461Z,6.46
2023-03-17T03:23:18.917Z,6.44
2023-03-17T03:26:05.795Z,6.51
2023-03-17T03:28:54.018Z,6.45
2023-03-17T03:31:40.668Z,6.49
2023-03-17T03:34:27.979Z,6.40
2023-03-17T03:37:14.494Z,6.55
2023-03-17T03:40:01.504Z,6.56
2023-03-17T03:42:48.086Z,6.49
2023-03-17T03:45:36.148Z,6.53
2023-03-17T03:48:23.519Z,6.49
2023-03-17T03:51:10.533Z,6.61
2023-03-17T03:53:57.190Z,6.61
2023-03-17T03:56:43.876Z,6.60
2023-03-17T03:59:31.803Z,6.52
2023-03-17T04:02:19.691Z,6.42
2023-03-17T04:05:07.713Z,6.45
2023-03-17T04:07:54.424Z,6.34
2023-03-17T04:10:41.438Z,6.35
2023-03-17T04:13:28.162Z,6.33
2023-03-17T04:16:15.002Z,6.41
2023-03-17T04:19:03.245Z,6.39
2023-03-17T04:21:50.057Z,6.43
2023-03-17T04:24:37.300Z,6.39
2023-03-17T04:27:24.142Z,6.31
2023-03-17T04:30:13.647Z,6.34
2023-03-17T04:33:00.214Z,6.15
2023-03-17T04:35:48.231Z,6.21
2023-03-17T04:38:34.999Z,6.37
2023-03-17T04:41:22.320Z,6.36
2023-03-17T04:44:09.275Z,6.47
2023-03-17T04:46:55.772Z,6.37
2023-03-17T04:49:42.562Z,6.41
2023-03-17T04:52:31.218Z,6.33
2023-03-17T04:55:20.330Z,6.38
2023-03-17T04:58:07.787Z,6.42
2023-03-17T05:00:54.928Z,6.43
2023-03-17T05:03:41.762Z,6.38
2023-03-17T05:06:28.330Z,6.34
2023-03-17T05:09:16.491Z,6.48
2023-03-17T05:12:03.274Z,6.24
2023-03-17T05:14:49.998Z,6.24
2023-03-17T05:17:36.850Z,6.33
2023-03-17T05:20:24.033Z,6.36
2023-03-17T05:23:10.678Z,6.34
2023-03-17T05:25:59.393Z,6.33
2023-03-17T05:28:47.154Z,6.32
2023-03-17T05:31:34.331Z,6.22
2023-03-17T05:34:21.367Z,6.32
2023-03-17T05:37:12.049Z,6.23
2023-03-17T05:39:59.573Z,6.42
2023-03-17T05:42:51.242Z,6.56
2023-03-17T05:45:39.244Z,6.56
2023-03-17T05:48:26.572Z,6.52
2023-03-17T05:51:13.063Z,6.58
2023-03-17T05:54:00.481Z,6.66
2023-03-17T05:56:48.511Z,6.69
2023-03-17T05:59:37.154Z,6.67
2023-03-17T06:02:24.191Z,6.69
2023-03-17T06:05:11.662Z,6.70
2023-03-17T06:07:58.141Z,6.90
2023-03-17T06:10:45.267Z,6.85
2023-03-17T06:13:32.113Z,6.99
2023-03-17T06:16:20.865Z,6.89
2023-03-17T06:19:07.561Z,6.99
2023-03-17T06:21:54.451Z,7.04
2023-03-17T06:24:41.338Z,7.06
2023-03-17T06:27:28.168Z,7.10
2023-03-17T06:30:15.205Z,7.02
2023-03-17T06:33:04.286Z,6.99
2023-03-17T06:35:51.808Z,6.98
2023-03-17T06:38:39.414Z,7.06
2023-03-17T06:41:26.621Z,6.95
2023-03-17T06:44:13.215Z,7.07
2023-03-17T06:47:08.522Z,7.12
2023-03-17T06:49:59.022Z,7.17
2023-03-17T06:52:47.620Z,7.08
2023-03-17T06:55:35.770Z,7.20
2023-03-17T06:58:24.341Z,7.02
2023-03-17T07:01:12.861Z,7.24
2023-03-17T07:04:01.853Z,7.43
2023-03-17T07:06:51.673Z,7.64
2023-03-17T07:09:40.198Z,7.62
2023-03-17T07:12:29.327Z,7.62
2023-03-17T07:15:19.363Z,7.63
2023-03-17T07:18:08.466Z,7.76
2023-03-17T07:20:56.852Z,7.90
2023-03-17T07:23:46.337Z,8.03
2023-03-17T07:26:33.583Z,7.98
2023-03-17T07:29:21.414Z,8.00
2023-03-17T07:32:10.310Z,8.01
2023-03-17T07:34:57.843Z,8.13
2023-03-17T07:37:45.954Z,8.04
2023-03-17T07:40:36.220Z,8.07
2023-03-17T07:43:23.184Z,8.19
2023-03-17T07:46:10.277Z,8.15
2023-03-17T07:48:56.968Z,8.18
2023-03-17T07:51:44.111Z,8.33
2023-03-17T07:54:30.613Z,8.72
2023-03-17T07:57:18.868Z,8.83
2023-03-17T08:00:09.188Z,9.28
2023-03-17T08:03:09.468Z,9.62
2023-03-17T08:05:57.446Z,9.90
2023-03-17T08:08:44.478Z,10.38
2023-03-17T08:11:31.183Z,10.73
2023-03-17T08:14:19.277Z,11.15
2023-03-17T08:17:06.497Z,11.18
2023-03-17T08:19:53.717Z,11.48
2023-03-17T08:22:40.393Z,12.13
2023-03-17T08:25:27.713Z,12.61
2023-03-17T08:28:15.469Z,13.25
2023-03-17T08:31:12.960Z,13.78
2023-03-17T08:33:59.598Z,13.97
2023-03-17T08:36:46.361Z,13.49
2023-03-17T08:39:33.287Z,12.23
2023-03-17T08:42:20.287Z,11.68
2023-03-17T08:45:08.021Z,11.78
2023-03-17T08:47:56.087Z,11.69
2023-03-17T08:50:43.028Z,11.54
2023-03-17T08:53:29.993Z,11.66
2023-03-17T08:56:16.993Z,11.55
2023-03-17T08:59:05.517Z,11.27
2023-03-17T09:01:52.700Z,11.58
2023-03-17T09:04:41.307Z,11.42
2023-03-17T09:07:27.837Z,11.19
2023-03-17T09:10:16.896Z,11.36
2023-03-17T09:13:04.732Z,11.47
2023-03-17T09:15:51.989Z,11.55
2023-03-17T09:18:39.103Z,11.60
2023-03-17T09:21:27.417Z,11.79
2023-03-17T09:24:14.138Z,11.92
2023-03-17T09:27:01.469Z,12.05
2023-03-17T09:29:48.455Z,12.30
2023-03-17T09:32:34.969Z,12.34
2023-03-17T09:35:22.530Z,12.36
2023-03-17T09:38:11.544Z,12.40
2023-03-17T09:41:01.834Z,12.69
2023-03-17T09:43:55.891Z,12.50
2023-03-17T09:46:53.612Z,12.83
2023-03-17T09:49:45.706Z,12.50
2023-03-17T09:52:36.365Z,12.88
2023-03-17T09:55:29.107Z,12.87
2023-03-17T09:58:16.559Z,12.90
2023-03-17T10:01:05.375Z,13.02
2023-03-17T10:03:52.617Z,12.91
2023-03-17T10:06:43.628Z,13.05
2023-03-17T10:09:37.170Z,13.05
2023-03-17T10:12:34.775Z,13.10
2023-03-17T10:15:26.570Z,13.23
2023-03-17T10:18:15.194Z,13.53
2023-03-17T10:21:04.705Z,13.60
2023-03-17T10:23:52.366Z,13.71
2023-03-17T10:26:43.182Z,13.59
2023-03-17T10:29:32.000Z,13.54
2023-03-17T10:32:18.459Z,13.56
2023-03-17T10:35:05.879Z,13.83
2023-03-17T10:38:04.349Z,13.78
2023-03-17T10:41:00.925Z,14.18
2023-03-17T10:43:50.743Z,14.29
2023-03-17T10:46:40.253Z,14.53
2023-03-17T10:49:27.345Z,14.67
2023-03-17T10:52:22.299Z,14.56
2023-03-17T10:55:13.528Z,14.86
2023-03-17T10:58:04.840Z,14.73
2023-03-17T11:00:57.335Z,15.14
2023-03-17T11:03:45.466Z,15.09
2023-03-17T11:06:39.418Z,15.16
2023-03-17T11:09:29.257Z,14.99
2023-03-17T11:12:25.615Z,15.11
2023-03-17T11:15:16.974Z,15.20
2023-03-17T11:18:08.081Z,15.36
2023-03-17T11:21:01.155Z,15.09
2023-03-17T11:24:08.310Z,15.36
2023-03-17T11:27:00.292Z,15.15
2023-03-17T11:30:01.706Z,15.34
2023-03-17T11:32:57.634Z,15.29
2023-03-17T11:35:51.600Z,15.25
2023-03-17T11:38:50.828Z,15.49
2023-03-17T11:41:46.612Z,15.49
2023-03-17T11:45:02.878Z,15.52
2023-03-17T11:48:03.769Z,15.57
2023-03-17T11:50:57.620Z,15.93
2023-03-17T11:53:58.068Z,15.94
2023-03-17T11:56:48.995Z,15.92
2023-03-17T11:59:40.666Z,15.90
2023-03-17T12:02:36.866Z,15.90
2023-03-17T12:05:26.312Z,15.71
2023-03-17T12:08:22.276Z,15.51
2023-03-17T12:11:15.354Z,15.72
2023-03-17T12:14:06.695Z,15.87
2023-03-17T12:17:01.419Z,15.78
2023-03-17T12:20:00.716Z,15.81
2023-03-17T12:22:55.900Z,15.77
2023-03-17T12:25:52.879Z,15.72
2023-03-17T12:28:47.757Z,15.73
2023-03-17T12:31:37.430Z,15.78
2023-03-17T12:34:31.835Z,16.03
2023-03-17T12:37:19.395Z,16.00
2023-03-17T12:40:13.265Z,15.99
2023-03-17T12:43:20.082Z,16.05
2023-03-17T12:46:22.559Z,16.11
2023-03-17T12:49:27.701Z,16.00
2023-03-17T12:52:22.797Z,15.94
2023-03-17T12:55:14.962Z,16.09
2023-03-17T12:58:04.759Z,16.22
2023-03-17T13:01:02.003Z,16.54
2023-03-17T13:04:03.444Z,16.47
2023-03-17T13:07:00.232Z,16.44
2023-03-17T13:09:49.883Z,16.52
2023-03-17T13:12:58.036Z,16.78
2023-03-17T13:15:59.767Z,16.75
2023-03-17T13:18:51.634Z,16.76
2023-03-17T13:21:39.959Z,16.54
2023-03-17T13:24:43.421Z,16.34
2023-03-17T13:27:44.934Z,16.13
2023-03-17T13:30:57.357Z,16.14
2023-03-17T13:33:47.441Z,16.16
2023-03-17T13:36:45.618Z,16.03
2023-03-17T13:40:11.083Z,16.25
2023-03-17T13:43:15.740Z,16.08
2023-03-17T13:46:22.402Z,15.97
2023-03-17T13:49:22.446Z,16.06
2023-03-17T13:52:16.436Z,16.30
2023-03-17T13:55:07.862Z,16.30
2023-03-17T13:57:57.792Z,16.32
2023-03-17T14:00:49.076Z,16.43
2023-03-17T14:03:43.107Z,16.66
2023-03-17T14:06:31.698Z,16.22
2023-03-17T14:09:32.077Z,16.65
2023-03-17T14:12:27.053Z,16.61
2023-03-17T14:15:21.477Z,16.50
2023-03-17T14:18:16.464Z,16.39
2023-03-17T14:21:10.544Z,16.31
2023-03-17T14:23:59.694Z,16.36
2023-03-17T14:26:48.998Z,16.52
2023-03-17T14:29:35.994Z,16.64
2023-03-17T14:32:25.469Z,16.54
2023-03-17T14:35:14.314Z,16.59
2023-03-17T14:38:01.603Z,16.59
2023-03-17T14:40:49.073Z,16.53
2023-03-17T14:43:37.537Z,16.55
2023-03-17T14:46:26.658Z,16.49
2023-03-17T14:49:18.700Z,16.59
2023-03-17T14:52:05.522Z,16.43
2023-03-17T14:54:54.279Z,16.25
2023-03-17T14:57:41.010Z,16.45
2023-03-17T15:00:38.158Z,16.49
2023-03-17T15:03:28.453Z,16.46
2023-03-17T15:06:26.478Z,16.42
2023-03-17T15:09:20.354Z,16.34
2023-03-17T15:12:14.518Z,16.50
2023-03-17T15:15:05.628Z,16.21
2023-03-17T15:17:56.900Z,16.25
2023-03-17T15:20:45.924Z,16.15
2023-03-17T15:23:41.424Z,16.25
2023-03-17T15:26:32.388Z,16.28
2023-03-17T15:29:19.245Z,16.21
2023-03-17T15:32:15.403Z,16.13
2023-03-17T15:35:03.780Z,15.71
2023-03-17T15:37:50.968Z,16.01
2023-03-17T15:40:37.687Z,16.00
2023-03-17T15:43:24.774Z,15.53
2023-03-17T15:46:21.032Z,15.86
2023-03-17T15:49:11.734Z,15.74
2023-03-17T15:52:00.011Z,15.62
2023-03-17T15:54:47.013Z,15.59
2023-03-17T15:57:33.940Z,15.39
2023-03-17T16:00:23.038Z,15.34
2023-03-17T16:03:18.090Z,15.35
2023-03-17T16:06:08.431Z,15.25
2023-03-17T16:08:56.562Z,15.18
2023-03-17T16:11:43.777Z,15.08
2023-03-17T16:14:30.850Z,14.96
2023-03-17T16:17:26.741Z,14.93
2023-03-17T16:20:23.583Z,14.94
2023-03-17T16:23:15.450Z,14.93
2023-03-17T16:26:14.126Z,14.70
2023-03-17T16:29:01.771Z,14.78
2023-03-17T16:31:50.792Z,14.55
2023-03-17T16:34:37.290Z,14.48
2023-03-17T16:37:24.171Z,14.52
2023-03-17T16:40:19.039Z,14.47
2023-03-17T16:43:24.989Z,14.55
2023-03-17T16:46:12.867Z,14.37
2023-03-17T16:48:59.663Z,14.19
2023-03-17T16:51:47.403Z,14.08
2023-03-17T16:54:35.384Z,14.04
2023-03-17T16:57:22.283Z,13.94
2023-03-17T17:00:17.211Z,13.96
2023-03-17T17:03:03.885Z,14.02
2023-03-17T17:05:51.117Z,13.96
2023-03-17T17:08:37.813Z,13.99
2023-03-17T17:11:24.619Z,13.85
2023-03-17T17:14:11.513Z,13.62
2023-03-17T17:17:00.643Z,13.63
2023-03-17T17:19:47.268Z,13.61
2023-03-17T17:22:34.330Z,13.63
2023-03-17T17:25:21.068Z,13.54
2023-03-17T17:28:08.567Z,13.50
2023-03-17T17:30:55.309Z,13.43
2023-03-17T17:33:45.708Z,13.51
2023-03-17T17:36:32.470Z,13.39
2023-03-17T17:39:19.319Z,13.39
2023-03-17T17:42:06.626Z,13.41
2023-03-17T17:44:53.491Z,13.41
2023-03-17T17:47:40.364Z,13.44
2023-03-17T17:50:32.179Z,13.48
2023-03-17T17:53:19.298Z,13.37
2023-03-17T17:56:06.146Z,13.43
2023-03-17T17:58:52.771Z,13.36
2023-03-17T18:01:39.636Z,13.46
2023-03-17T18:04:26.115Z,13.57
2023-03-17T18:07:14.176Z,13.62
2023-03-17T18:10:02.295Z,13.61
2023-03-17T18:12:49.359Z,13.49
2023-03-17T18:15:36.319Z,13.60
2023-03-17T18:18:22.869Z,13.56
2023-03-17T18:21:10.452Z,13.55
2023-03-17T18:23:58.579Z,13.42
2023-03-17T18:26:45.166Z,13.41
2023-03-17T18:29:31.971Z,13.46
2023-03-17T18:32:18.914Z,13.40
2023-03-17T18:35:10.490Z,13.46
2023-03-17T18:37:58.039Z,13.25
2023-03-17T18:40:46.442Z,13.44
2023-03-17T18:43:33.321Z,13.35
2023-03-17T18:46:20.067Z,13.28
2023-03-17T18:49:08.872Z,13.19
2023-03-17T18:51:56.745Z,13.13
2023-03-17T18:54:43.522Z,13.06
2023-03-17T18:57:31.463Z,13.11
2023-03-17T19:00:18.997Z,13.08
2023-03-17T19:03:05.763Z,13.02
2023-03-17T19:05:52.497Z,13.06
2023-03-17T19:08:39.446Z,13.10
2023-03-17T19:11:26.207Z,12.98
2023-03-17T19:14:14.392Z,13.08
2023-03-17T19:17:01.208Z,12.99
2023-03-17T19:19:50.321Z,12.99
2023-03-17T19:22:37.201Z,12.89
2023-03-17T19:25:24.384Z,12.86
2023-03-17T19:28:10.901Z,12.69
2023-03-17T19:30:59.641Z,12.80
2023-03-17T19:33:46.362Z,12.72
2023-03-17T19:36:37.077Z,12.73
2023-03-17T19:39:23.628Z,12.60
2023-03-17T19:42:12.108Z,12.68
2023-03-17T19:44:59.100Z,12.66
2023-03-17T19:47:47.188Z,12.53
2023-03-17T19:50:34.164Z,12.48
2023-03-17T19:53:20.766Z,12.53
2023-03-17T19:56:08.184Z,12.54
2023-03-17T19:58:55.537Z,12.52
2023-03-17T20:01:42.779Z,12.58
2023-03-17T20:04:31.112Z,12.56
2023-03-17T20:07:17.612Z,12.49
2023-03-17T20:10:06.612Z,12.52
2023-03-17T20:12:53.112Z,12.58
2023-03-17T20:15:40.201Z,12.62
2023-03-17T20:18:31.300Z,12.64
2023-03-17T20:21:19.842Z,12.70
2023-03-17T20:24:07.069Z,12.77
2023-03-17T20:26:57.196Z,12.68
2023-03-17T20:29:44.406Z,12.60
2023-03-17T20:32:31.038Z,12.62
2023-03-17T20:35:18.855Z,12.63
2023-03-17T20:38:07.477Z,12.60
2023-03-17T20:40:54.133Z,12.53
2023-03-17T20:43:41.786Z,12.39
2023-03-17T20:46:28.644Z,12.48
2023-03-17T20:49:17.027Z,12.44
2023-03-17T20:52:06.053Z,12.32
2023-03-17T20:54:54.820Z,12.32
2023-03-17T20:57:45.401Z,12.31
2023-03-17T21:00:33.010Z,12.28
2023-03-17T21:03:19.866Z,12.16
2023-03-17T21:06:06.794Z,12.07
2023-03-17T21:08:53.799Z,12.00
2023-03-17T21:11:42.256Z,12.04
2023-03-17T21:14:29.082Z,11.88
2023-03-17T21:17:18.126Z,11.83
2023-03-17T21:20:06.161Z,11.81
2023-03-17T21:22:53.888Z,11.61
2023-03-17T21:25:42.145Z,11.74
2023-03-17T21:28:41.630Z,11.62
2023-03-17T21:31:30.542Z,11.66
2023-03-17T21:34:18.381Z,11.63
2023-03-17T21:37:07.861Z,11.72
2023-03-17T21:39:54.736Z,11.66
2023-03-17T21:42:41.348Z,11.61
2023-03-17T21:45:29.736Z,11.56
2023-03-17T21:48:16.570Z,11.70
2023-03-17T21:51:03.595Z,11.72
2023-03-17T21:53:50.273Z,11.69
2023-03-17T21:56:37.672Z,11.67
2023-03-17T21:59:25.028Z,11.65
2023-03-17T22:02:13.708Z,11.68
2023-03-17T22:05:01.027Z,11.58
2023-03-17T22:07:47.561Z,11.68
2023-03-17T22:10:34.464Z,11.56
2023-03-17T22:13:21.346Z,11.54
2023-03-17T22:16:09.544Z,11.58
2023-03-17T22:18:57.520Z,11.48
2023-03-17T22:21:44.270Z,11.67
2023-03-17T22:24:32.548Z,11.60
2023-03-17T22:27:19.736Z,11.67
2023-03-17T22:30:07.045Z,11.68
2023-03-17T22:32:53.637Z,11.79
2023-03-17T22:35:42.473Z,11.70
2023-03-17T22:38:29.286Z,11.67
2023-03-17T22:41:18.510Z,11.65
2023-03-17T22:44:06.127Z,11.72
2023-03-17T22:46:52.586Z,11.68
2023-03-17T22:49:39.502Z,11.62
2023-03-17T22:52:27.875Z,11.66
2023-03-17T22:55:15.695Z,11.39
2023-03-17T22:58:02.413Z,11.66
2023-03-17T23:00:50.585Z,11.65
2023-03-17T23:03:37.707Z,11.66
2023-03-17T23:06:25.184Z,11.64
2023-03-17T23:09:13.340Z,11.64
2023-03-17T23:12:00.760Z,11.78
2023-03-17T23:14:47.585Z,11.61
2023-03-17T23:17:34.436Z,11.76
2023-03-17T23:20:21.329Z,11.73
2023-03-17T23:23:08.499Z,11.68
2023-03-17T23:25:56.445Z,11.73
2023-03-17T23:28:44.428Z,11.83
2023-03-17T23:31:32.169Z,11.88
2023-03-17T23:34:18.932Z,11.86
2023-03-17T23:37:05.774Z,11.75
2023-03-17T23:39:52.692Z,11.89
2023-03-17T23:42:48.121Z,11.88
2023-03-17T23:45:35.513Z,11.91
2023-03-17T23:48:27.568Z,11.74
2023-03-17T23:51:14.576Z,11.71
2023-03-17T23:54:01.481Z,11.68
2023-03-17T23:56:48.523Z,11.74
2023-03-17T23:59:37.180Z,11.78
